createdAt,value
2023-05-21T00:00:17.912Z,99770.47
2023-05-21T00:02:46.046Z,99774.19
2023-05-21T00:05:15.586Z,99758.38
2023-05-21T00:07:43.640Z,99755.44
2023-05-21T00:10:12.074Z,99757.13
2023-05-21T00:12:42.012Z,99755.03
2023-05-21T00:15:11.078Z,99758.75
2023-05-21T00:17:40.101Z,99761.09
2023-05-21T00:20:10.164Z,99759.69
2023-05-21T00:22:38.185Z,99753.25
2023-05-21T00:25:07.077Z,99751.81
2023-05-21T00:27:35.049Z,99744.38
2023-05-21T00:30:04.880Z,99745.19
2023-05-21T00:32:32.878Z,99746.88
2023-05-21T00:35:00.838Z,99752.31
2023-05-21T00:37:29.930Z,99748.19
2023-05-21T00:39:58.471Z,99740.34
2023-05-21T00:42:27.443Z,99747.03
2023-05-21T00:44:55.431Z,99744.31
2023-05-21T00:47:24.897Z,99739.53
2023-05-21T00:49:53.447Z,99731.06
2023-05-21T00:52:22.005Z,99733.78
2023-05-21T00:54:50.792Z,99741.19
2023-05-21T00:57:20.690Z,99722.28
2023-05-21T00:59:48.802Z,99734.41
2023-05-21T01:02:18.242Z,99731.34
2023-05-21T01:04:47.752Z,99726.53
2023-05-21T01:07:15.861Z,99726.16
2023-05-21T01:09:44.105Z,99730.53
2023-05-21T01:12:12.115Z,99731.16
2023-05-21T01:14:40.059Z,99737.81
2023-05-21T01:17:10.481Z,99730.16
2023-05-21T01:19:38.681Z,99730.38
2023-05-21T01:22:09.121Z,99729.16
2023-05-21T01:24:38.939Z,99736.88
2023-05-21T01:27:07.842Z,99731.69
2023-05-21T01:29:35.929Z,99734.81
2023-05-21T01:32:06.287Z,99717.31
2023-05-21T01:34:37.488Z,99739.38
2023-05-21T01:37:10.636Z,99738.56
2023-05-21T01:39:40.483Z,99731.47
2023-05-21T01:42:10.423Z,99721.91
2023-05-21T01:44:38.425Z,99720.25
2023-05-21T01:47:07.563Z,99721.91
2023-05-21T01:49:35.577Z,99712.78
2023-05-21T01:52:03.948Z,99715.28
2023-05-21T01:54:31.907Z,99714.25
2023-05-21T01:57:01.746Z,99717.78
2023-05-21T01:59:30.086Z,99715.94
2023-05-21T02:01:58.126Z,99714.47
2023-05-21T02:04:26.081Z,99711.13
2023-05-21T02:06:54.916Z,99716.53
2023-05-21T02:09:22.898Z,99713.63
2023-05-21T02:11:50.870Z,99717.78
2023-05-21T02:14:20.742Z,99713.22
2023-05-21T02:16:48.888Z,99710.34
2023-05-21T02:19:17.413Z,99710.34
2023-05-21T02:21:46.025Z,99704.94
2023-05-21T02:24:15.087Z,99701.19
2023-05-21T02:26:43.512Z,99694.97
2023-05-21T02:29:11.514Z,99694.50
2023-05-21T02:31:41.302Z,99696.38
2023-05-21T02:34:09.376Z,99694.91
2023-05-21T02:36:37.360Z,99691.16
2023-05-21T02:39:05.400Z,99690.72
2023-05-21T02:41:33.347Z,99689.47
2023-05-21T02:44:01.293Z,99695.06
2023-05-21T02:46:29.326Z,99695.25
2023-05-21T02:48:58.839Z,99704.38
2023-05-21T02:51:26.864Z,99695.66
2023-05-21T02:53:54.832Z,99706.44
2023-05-21T02:56:22.804Z,99702.72
2023-05-21T02:58:52.055Z,99709.78
2023-05-21T03:01:20.121Z,99704.38
2023-05-21T03:03:48.197Z,99713.13
2023-05-21T03:06:17.797Z,99705.25
2023-05-21T03:08:45.768Z,99706.53
2023-05-21T03:11:13.754Z,99708.84
2023-05-21T03:13:42.777Z,99707.81
2023-05-21T03:16:11.079Z,99710.34
2023-05-21T03:18:39.033Z,99712.00
2023-05-21T03:21:07.309Z,99713.25
2023-05-21T03:23:37.068Z,99710.38
2023-05-21T03:26:05.098Z,99715.38
2023-05-21T03:28:33.107Z,99718.28
2023-05-21T03:31:01.133Z,99720.41
2023-05-21T03:33:29.096Z,99720.41
2023-05-21T03:35:57.152Z,99715.66
2023-05-21T03:38:25.162Z,99713.97
2023-05-21T03:40:55.004Z,99707.13
2023-05-21T03:43:22.963Z,99719.00
2023-05-21T03:45:50.963Z,99721.34
2023-05-21T03:48:19.245Z,99716.00
2023-05-21T03:50:47.285Z,99720.16
2023-05-21T03:53:15.273Z,99719.75
2023-05-21T03:55:43.289Z,99696.00
2023-05-21T03:58:12.624Z,99715.16
2023-05-21T04:00:40.726Z,99721.78
2023-05-21T04:03:09.677Z,99717.13
2023-05-21T04:05:37.998Z,99719.78
2023-05-21T04:08:06.899Z,99701.69
2023-05-21T04:10:35.272Z,99706.88
2023-05-21T04:13:03.290Z,99712.06
2023-05-21T04:15:34.827Z,99707.28
2023-05-21T04:18:03.100Z,99712.81
2023-05-21T04:20:31.295Z,99713.97
2023-05-21T04:22:59.410Z,99703.47
2023-05-21T04:25:27.499Z,99712.63
2023-05-21T04:27:55.556Z,99711.69
2023-05-21T04:30:24.095Z,99707.84
2023-05-21T04:32:54.920Z,99704.25
2023-05-21T04:35:23.506Z,99708.56
2023-05-21T04:37:52.204Z,99708.31
2023-05-21T04:40:24.430Z,99705.94
2023-05-21T04:42:52.426Z,99714.41
2023-05-21T04:45:21.273Z,99709.13
2023-05-21T04:47:49.369Z,99702.03
2023-05-21T04:50:18.894Z,99696.00
2023-05-21T04:52:46.855Z,99690.41
2023-05-21T04:55:14.839Z,99685.41
2023-05-21T04:57:42.805Z,99685.72
2023-05-21T05:00:12.604Z,99691.63
2023-05-21T05:02:41.043Z,99685.50
2023-05-21T05:05:09.839Z,99695.00
2023-05-21T05:07:39.202Z,99685.19
2023-05-21T05:10:08.222Z,99686.31
2023-05-21T05:12:36.217Z,99678.50
2023-05-21T05:15:04.307Z,99684.72
2023-05-21T05:17:32.373Z,99678.41
2023-05-21T05:20:00.363Z,99679.03
2023-05-21T05:22:28.370Z,99668.41
2023-05-21T05:24:57.696Z,99668.50
2023-05-21T05:27:25.775Z,99667.91
2023-05-21T05:29:53.866Z,99665.06
2023-05-21T05:32:21.878Z,99664.22
2023-05-21T05:34:49.876Z,99663.75
2023-05-21T05:37:17.874Z,99665.53
2023-05-21T05:39:45.872Z,99662.09
2023-05-21T05:42:15.233Z,99661.97
2023-05-21T05:44:43.202Z,99662.25
2023-05-21T05:47:11.193Z,99649.16
2023-05-21T05:49:39.175Z,99650.63
2023-05-21T05:52:07.852Z,99659.31
2023-05-21T05:54:35.844Z,99655.78
2023-05-21T05:57:03.793Z,99658.28
2023-05-21T05:59:33.978Z,99653.13
2023-05-21T06:02:02.314Z,99657.53
2023-05-21T06:04:30.663Z,99661.78
2023-05-21T06:06:58.688Z,99653.63
2023-05-21T06:09:26.693Z,99655.25
2023-05-21T06:11:54.691Z,99655.28
2023-05-21T06:14:22.688Z,99656.19
2023-05-21T06:16:52.004Z,99656.91
2023-05-21T06:19:20.154Z,99653.34
2023-05-21T06:21:48.626Z,99663.59
2023-05-21T06:24:16.653Z,99661.41
2023-05-21T06:26:44.582Z,99660.84
2023-05-21T06:29:14.858Z,99648.72
2023-05-21T06:31:43.556Z,99650.56
2023-05-21T06:34:12.985Z,99645.53
2023-05-21T06:36:41.149Z,99641.31
2023-05-21T06:39:09.097Z,99629.66
2023-05-21T06:41:37.191Z,99633.16
2023-05-21T06:44:05.957Z,99641.16
2023-05-21T06:46:34.868Z,99634.34
2023-05-21T06:49:02.882Z,99632.63
2023-05-21T06:51:32.208Z,99631.16
2023-05-21T06:54:00.164Z,99624.84
2023-05-21T06:56:28.108Z,99623.78
2023-05-21T06:58:56.099Z,99633.91
2023-05-21T07:01:25.030Z,99627.22
2023-05-21T07:03:53.065Z,99625.66
2023-05-21T07:06:21.056Z,99621.84
2023-05-21T07:08:50.653Z,99627.72
2023-05-21T07:11:18.647Z,99622.13
2023-05-21T07:13:46.831Z,99620.09
2023-05-21T07:16:16.693Z,99618.25
2023-05-21T07:18:44.696Z,99620.00
2023-05-21T07:21:12.922Z,99609.59
2023-05-21T07:23:41.068Z,99607.31
2023-05-21T07:26:10.972Z,99609.25
2023-05-21T07:28:38.957Z,99612.88
2023-05-21T07:31:07.122Z,99615.59
2023-05-21T07:33:35.181Z,99619.25
2023-05-21T07:36:03.176Z,99621.22
2023-05-21T07:38:31.649Z,99612.63
2023-05-21T07:40:59.782Z,99622.59
2023-05-21T07:43:29.222Z,99624.31
2023-05-21T07:45:57.285Z,99614.16
2023-05-21T07:48:25.269Z,99613.59
2023-05-21T07:50:53.641Z,99615.53
2023-05-21T07:53:21.780Z,99605.13
2023-05-21T07:55:49.734Z,99612.22
2023-05-21T07:58:18.112Z,99606.94
2023-05-21T08:00:48.172Z,99604.38
2023-05-21T08:03:17.336Z,99610.13
2023-05-21T08:05:48.629Z,99605.56
2023-05-21T08:08:17.343Z,99602.78
2023-05-21T08:10:45.332Z,99593.31
2023-05-21T08:13:13.368Z,99600.41
2023-05-21T08:15:41.401Z,99606.28
2023-05-21T08:18:11.936Z,99603.53
2023-05-21T08:20:40.072Z,99600.91
2023-05-21T08:23:08.127Z,99598.38
2023-05-21T08:25:36.424Z,99605.56
2023-05-21T08:28:04.680Z,99608.56
2023-05-21T08:30:32.719Z,99606.84
2023-05-21T08:33:01.309Z,99609.56
2023-05-21T08:35:30.726Z,99608.69
2023-05-21T08:37:58.896Z,99621.38
2023-05-21T08:40:26.925Z,99617.97
2023-05-21T08:42:54.979Z,99619.25
2023-05-21T08:45:23.562Z,99620.38
2023-05-21T08:47:56.331Z,99627.22
2023-05-21T08:50:25.749Z,99620.41
2023-05-21T08:52:57.661Z,99620.47
2023-05-21T08:55:26.920Z,99619.31
2023-05-21T08:57:56.294Z,99608.78
2023-05-21T09:00:24.397Z,99618.94
2023-05-21T09:02:54.641Z,99624.06
2023-05-21T09:05:22.956Z,99616.44
2023-05-21T09:08:02.089Z,99615.75
2023-05-21T09:10:35.180Z,99620.59
2023-05-21T09:13:03.217Z,99620.25
2023-05-21T09:15:31.314Z,99619.72
2023-05-21T09:17:59.387Z,99616.72
2023-05-21T09:20:27.710Z,99621.66
2023-05-21T09:22:55.801Z,99620.69
2023-05-21T09:25:24.943Z,99622.94
2023-05-21T09:27:54.469Z,99631.53
2023-05-21T09:30:34.173Z,99624.97
2023-05-21T09:33:04.116Z,99623.56
2023-05-21T09:35:32.169Z,99622.09
2023-05-21T09:38:00.143Z,99624.47
2023-05-21T09:40:28.154Z,99617.31
2023-05-21T09:42:57.519Z,99627.25
2023-05-21T09:45:26.328Z,99626.13
2023-05-21T09:47:55.054Z,99621.16
2023-05-21T09:50:23.888Z,99618.97
2023-05-21T09:52:53.082Z,99615.25
2023-05-21T09:55:24.542Z,99617.34
2023-05-21T09:57:52.768Z,99616.44
2023-05-21T10:00:22.481Z,99613.84
2023-05-21T10:02:51.660Z,99613.31
2023-05-21T10:05:19.832Z,99614.31
2023-05-21T10:07:51.112Z,99613.38
2023-05-21T10:10:21.140Z,99609.84
2023-05-21T10:12:49.951Z,99604.03
2023-05-21T10:15:20.804Z,99604.66
2023-05-21T10:17:50.272Z,99612.22
2023-05-21T10:20:18.506Z,99603.50
2023-05-21T10:22:46.454Z,99601.22
2023-05-21T10:25:14.436Z,99604.59
2023-05-21T10:27:42.390Z,99604.81
2023-05-21T10:30:10.977Z,99604.19
2023-05-21T10:32:39.080Z,99604.25
2023-05-21T10:35:10.278Z,99606.88
2023-05-21T10:37:38.290Z,99604.06
2023-05-21T10:40:07.510Z,99595.22
2023-05-21T10:43:11.947Z,99587.44
2023-05-21T10:45:48.248Z,99583.34
2023-05-21T10:48:29.004Z,99586.34
2023-05-21T10:51:13.906Z,99580.06
2023-05-21T10:53:49.259Z,99573.84
2023-05-21T10:56:22.095Z,99577.19
2023-05-21T10:58:58.254Z,99560.72
2023-05-21T11:01:28.506Z,99564.97
2023-05-21T11:03:56.553Z,99560.84
2023-05-21T11:06:26.718Z,99566.59
2023-05-21T11:08:55.786Z,99568.84
2023-05-21T11:11:46.221Z,99551.22
2023-05-21T11:14:35.742Z,99562.06
2023-05-21T11:17:04.675Z,99557.06
2023-05-21T11:19:36.992Z,99549.81
2023-05-21T11:22:10.425Z,99545.00
2023-05-21T11:24:39.404Z,99544.66
2023-05-21T11:27:08.739Z,99537.97
2023-05-21T11:29:44.578Z,99537.78
2023-05-21T11:32:15.168Z,99533.94
2023-05-21T11:34:47.101Z,99543.34
2023-05-21T11:37:34.979Z,99537.50
2023-05-21T11:40:25.876Z,99540.22
2023-05-21T11:42:54.702Z,99545.06
2023-05-21T11:45:23.027Z,99541.91
2023-05-21T11:47:52.132Z,99529.06
2023-05-21T11:50:20.822Z,99526.44
2023-05-21T11:52:50.319Z,99530.03
2023-05-21T11:55:22.708Z,99520.34
2023-05-21T11:57:51.021Z,99505.59
2023-05-21T12:00:19.346Z,99502.03
2023-05-21T12:02:51.572Z,99492.38
2023-05-21T12:05:19.725Z,99502.16
2023-05-21T12:07:52.569Z,99491.53
2023-05-21T12:10:24.260Z,99495.53
2023-05-21T12:12:55.560Z,99487.66
2023-05-21T12:15:26.019Z,99487.03
2023-05-21T12:17:54.369Z,99487.81
2023-05-21T12:20:22.461Z,99490.50
2023-05-21T12:22:51.869Z,99494.22
2023-05-21T12:25:21.144Z,99491.31
2023-05-21T12:27:51.004Z,99482.28
2023-05-21T12:30:19.085Z,99479.72
2023-05-21T12:32:47.254Z,99485.75
2023-05-21T12:35:24.870Z,99470.81
2023-05-21T12:37:54.431Z,99479.47
2023-05-21T12:40:23.111Z,99467.31
2023-05-21T12:42:51.839Z,99456.50
2023-05-21T12:45:22.105Z,99457.53
2023-05-21T12:47:55.996Z,99452.88
2023-05-21T12:50:24.678Z,99442.63
2023-05-21T12:52:57.066Z,99443.91
2023-05-21T12:55:25.515Z,99439.47
2023-05-21T12:58:02.512Z,99438.00
2023-05-21T13:00:30.594Z,99434.06
2023-05-21T13:03:00.317Z,99432.44
2023-05-21T13:05:28.329Z,99435.13
2023-05-21T13:07:57.695Z,99435.72
2023-05-21T13:10:25.725Z,99431.00
2023-05-21T13:12:53.748Z,99434.91
2023-05-21T13:15:21.969Z,99435.28
2023-05-21T13:17:51.153Z,99434.78
2023-05-21T13:20:21.797Z,99432.22
2023-05-21T13:22:51.091Z,99433.31
2023-05-21T13:25:21.620Z,99429.19
2023-05-21T13:27:50.100Z,99421.50
2023-05-21T13:30:18.246Z,99413.06
2023-05-21T13:32:46.547Z,99409.09
2023-05-21T13:35:16.501Z,99416.16
2023-05-21T13:37:44.997Z,99411.56
2023-05-21T13:40:15.047Z,99413.47
2023-05-21T13:42:45.301Z,99406.38
2023-05-21T13:45:14.245Z,99407.53
2023-05-21T13:47:42.619Z,99407.19
2023-05-21T13:50:10.969Z,99388.81
2023-05-21T13:52:39.028Z,99397.19
2023-05-21T13:55:07.890Z,99388.78
2023-05-21T13:57:35.874Z,99385.09
2023-05-21T14:00:06.075Z,99382.44
2023-05-21T14:02:34.754Z,99387.91
2023-05-21T14:05:02.936Z,99380.38
2023-05-21T14:07:31.011Z,99379.13
2023-05-21T14:09:59.022Z,99376.59
2023-05-21T14:12:28.546Z,99380.56
2023-05-21T14:14:56.559Z,99375.78
2023-05-21T14:17:25.959Z,99374.31
2023-05-21T14:19:54.939Z,99378.34
2023-05-21T14:22:23.041Z,99373.50
2023-05-21T14:24:51.019Z,99369.38
2023-05-21T14:27:19.035Z,99371.91
2023-05-21T14:29:47.097Z,99362.88
2023-05-21T14:32:15.135Z,99367.66
2023-05-21T14:34:44.568Z,99367.78
2023-05-21T14:37:12.513Z,99344.72
2023-05-21T14:39:40.505Z,99369.50
2023-05-21T14:42:08.543Z,99363.50
2023-05-21T14:44:36.531Z,99367.91
2023-05-21T14:47:04.692Z,99369.63
2023-05-21T14:49:32.711Z,99373.47
2023-05-21T14:52:02.096Z,99370.72
2023-05-21T14:54:30.130Z,99381.00
2023-05-21T14:56:58.157Z,99379.66
2023-05-21T14:59:26.178Z,99373.06
2023-05-21T15:01:54.170Z,99356.06
2023-05-21T15:04:22.240Z,99379.16
2023-05-21T15:06:50.556Z,99366.53
2023-05-21T15:09:19.947Z,99378.13
2023-05-21T15:11:52.546Z,99379.22
2023-05-21T15:14:20.843Z,99367.72
2023-05-21T15:16:50.152Z,99373.19
2023-05-21T15:19:18.208Z,99379.81
2023-05-21T15:21:46.237Z,99377.06
2023-05-21T15:24:14.236Z,99367.16
2023-05-21T15:26:43.795Z,99377.09
2023-05-21T15:29:11.821Z,99379.31
2023-05-21T15:31:39.827Z,99374.34
2023-05-21T15:34:07.913Z,99375.75
2023-05-21T15:36:36.648Z,99376.28
2023-05-21T15:39:06.266Z,99372.19
2023-05-21T15:41:36.351Z,99373.31
2023-05-21T15:44:06.166Z,99374.94
2023-05-21T15:46:34.342Z,99372.75
2023-05-21T15:49:02.426Z,99351.91
2023-05-21T15:51:30.738Z,99385.41
2023-05-21T15:53:58.843Z,99385.41
2023-05-21T15:56:27.477Z,99387.03
2023-05-21T15:58:58.435Z,99384.28
2023-05-21T16:01:28.553Z,99386.47
2023-05-21T16:03:56.728Z,99380.69
2023-05-21T16:06:24.752Z,99376.59
2023-05-21T16:08:52.760Z,99389.50
2023-05-21T16:11:21.553Z,99384.28
2023-05-21T16:13:49.510Z,99386.47
2023-05-21T16:16:17.470Z,99393.06
2023-05-21T16:18:46.903Z,99392.25
2023-05-21T16:21:14.959Z,99388.66
2023-05-21T16:23:42.971Z,99388.66
2023-05-21T16:26:11.092Z,99379.34
2023-05-21T16:28:39.109Z,99381.00
2023-05-21T16:31:07.087Z,99381.00
2023-05-21T16:33:35.155Z,99385.41
2023-05-21T16:36:04.564Z,99381.81
2023-05-21T16:38:32.572Z,99386.50
2023-05-21T16:41:00.608Z,99386.22
2023-05-21T16:43:28.683Z,99386.50
2023-05-21T16:45:56.692Z,99392.50
2023-05-21T16:48:24.665Z,99391.41
2023-05-21T16:50:52.691Z,99391.94
2023-05-21T16:53:22.072Z,99391.94
2023-05-21T16:55:50.059Z,99391.13
2023-05-21T16:58:19.093Z,99396.34
2023-05-21T17:00:47.352Z,99397.69
2023-05-21T17:03:16.008Z,99397.41
2023-05-21T17:05:44.224Z,99369.38
2023-05-21T17:08:12.231Z,99399.53
2023-05-21T17:10:41.578Z,99396.75
2023-05-21T17:13:21.435Z,99404.94
2023-05-21T17:15:51.069Z,99408.97
2023-05-21T17:18:19.190Z,99407.56
2023-05-21T17:20:47.256Z,99404.78
2023-05-21T17:23:15.402Z,99409.09
2023-05-21T17:25:44.872Z,99407.16
2023-05-21T17:28:12.838Z,99413.69
2023-05-21T17:30:40.932Z,99418.31
2023-05-21T17:33:10.395Z,99419.94
2023-05-21T17:35:39.007Z,99422.66
2023-05-21T17:38:07.253Z,99424.22
2023-05-21T17:40:36.025Z,99431.28
2023-05-21T17:43:07.253Z,99432.34
2023-05-21T17:45:35.682Z,99427.94
2023-05-21T17:48:04.013Z,99430.63
2023-05-21T17:50:32.034Z,99431.94
2023-05-21T17:53:00.091Z,99430.25
2023-05-21T17:55:28.112Z,99440.28
2023-05-21T17:57:56.111Z,99433.06
2023-05-21T18:00:25.792Z,99440.06
2023-05-21T18:02:53.846Z,99432.81
2023-05-21T18:05:22.874Z,99425.59
2023-05-21T18:07:50.886Z,99436.38
2023-05-21T18:10:18.841Z,99437.81
2023-05-21T18:12:47.294Z,99437.72
2023-05-21T18:15:15.696Z,99441.41
2023-05-21T18:17:45.181Z,99445.91
2023-05-21T18:20:14.490Z,99453.69
2023-05-21T18:22:42.512Z,99461.19
2023-05-21T18:25:10.992Z,99452.31
2023-05-21T18:27:38.972Z,99468.78
2023-05-21T18:30:08.575Z,99465.00
2023-05-21T18:32:38.795Z,99463.16
2023-05-21T18:35:12.531Z,99465.22
2023-05-21T18:37:44.383Z,99462.81
2023-05-21T18:40:13.547Z,99471.84
2023-05-21T18:42:41.556Z,99473.81
2023-05-21T18:45:11.035Z,99473.66
2023-05-21T18:47:40.445Z,99473.94
2023-05-21T18:50:12.197Z,99478.00
2023-05-21T18:52:40.278Z,99481.09
2023-05-21T18:55:08.905Z,99490.72
2023-05-21T18:57:38.219Z,99488.97
2023-05-21T19:00:09.944Z,99499.19
2023-05-21T19:02:38.095Z,99499.66
2023-05-21T19:05:07.220Z,99504.50
2023-05-21T19:07:36.914Z,99506.06
2023-05-21T19:10:05.397Z,99513.38
2023-05-21T19:12:34.161Z,99511.94
2023-05-21T19:15:02.192Z,99515.03
2023-05-21T19:17:30.292Z,99520.59
2023-05-21T19:19:58.532Z,99516.69
2023-05-21T19:22:26.965Z,99524.72
2023-05-21T19:24:56.354Z,99527.31
2023-05-21T19:27:24.346Z,99529.53
2023-05-21T19:29:52.626Z,99518.75
2023-05-21T19:32:23.623Z,99521.81
2023-05-21T19:34:51.664Z,99527.56
2023-05-21T19:37:19.667Z,99524.09
2023-05-21T19:39:50.159Z,99530.44
2023-05-21T19:42:21.396Z,99531.84
2023-05-21T19:44:49.504Z,99525.66
2023-05-21T19:47:17.496Z,99531.88
2023-05-21T19:49:45.774Z,99540.94
2023-05-21T19:52:13.757Z,99539.16
2023-05-21T19:54:41.796Z,99548.19
2023-05-21T19:57:12.362Z,99553.72
2023-05-21T19:59:42.002Z,99545.44
2023-05-21T20:02:12.214Z,99551.66
2023-05-21T20:04:42.595Z,99558.41
2023-05-21T20:07:10.608Z,99552.59
2023-05-21T20:09:39.101Z,99555.16
2023-05-21T20:12:07.816Z,99562.69
2023-05-21T20:14:35.765Z,99571.16
2023-05-21T20:17:06.358Z,99563.66
2023-05-21T20:19:34.480Z,99570.75
2023-05-21T20:22:02.534Z,99568.88
2023-05-21T20:24:30.491Z,99572.41
2023-05-21T20:26:58.490Z,99564.88
2023-05-21T20:29:26.566Z,99560.91
2023-05-21T20:31:54.495Z,99564.19
2023-05-21T20:34:24.683Z,99556.03
2023-05-21T20:36:52.862Z,99560.44
2023-05-21T20:39:22.121Z,99561.47
2023-05-21T20:41:50.140Z,99565.84
2023-05-21T20:44:18.678Z,99569.03
2023-05-21T20:46:47.744Z,99577.63
2023-05-21T20:49:17.746Z,99581.19
2023-05-21T20:51:47.381Z,99582.22
2023-05-21T20:54:15.493Z,99592.03
2023-05-21T20:56:45.073Z,99588.50
2023-05-21T20:59:13.140Z,99599.34
2023-05-21T21:01:41.508Z,99598.75
2023-05-21T21:04:09.960Z,99603.34
2023-05-21T21:06:38.573Z,99601.66
2023-05-21T21:09:08.583Z,99606.06
2023-05-21T21:11:37.033Z,99604.16
2023-05-21T21:14:05.058Z,99601.22
2023-05-21T21:16:33.255Z,99603.13
2023-05-21T21:19:01.651Z,99605.00
2023-05-21T21:21:29.726Z,99602.28
2023-05-21T21:23:57.824Z,99605.81
2023-05-21T21:26:27.380Z,99604.78
2023-05-21T21:28:56.356Z,99607.94
2023-05-21T21:31:24.819Z,99602.72
2023-05-21T21:33:53.054Z,99604.59
2023-05-21T21:36:21.150Z,99607.75
2023-05-21T21:38:49.124Z,99606.09
2023-05-21T21:41:17.128Z,99608.63
2023-05-21T21:43:46.524Z,99605.53
2023-05-21T21:46:14.546Z,99611.00
2023-05-21T21:48:42.574Z,99609.19
2023-05-21T21:51:10.525Z,99608.44
2023-05-21T21:53:38.494Z,99607.19
2023-05-21T21:56:06.660Z,99613.31
2023-05-21T21:58:34.632Z,99613.53
2023-05-21T22:01:04.014Z,99613.72
2023-05-21T22:03:33.454Z,99620.44
2023-05-21T22:06:01.456Z,99619.22
2023-05-21T22:08:29.410Z,99617.97
2023-05-21T22:10:57.512Z,99617.16
2023-05-21T22:13:26.992Z,99619.03
2023-05-21T22:15:57.384Z,99618.03
2023-05-21T22:18:39.558Z,99615.97
2023-05-21T22:21:09.720Z,99615.13
2023-05-21T22:23:38.433Z,99625.16
2023-05-21T22:26:06.604Z,99630.16
2023-05-21T22:28:34.730Z,99625.78
2023-05-21T22:31:02.937Z,99622.69
2023-05-21T22:33:32.448Z,99629.78
2023-05-21T22:36:00.395Z,99626.47
2023-05-21T22:38:28.415Z,99636.72
2023-05-21T22:40:56.458Z,99635.69
2023-05-21T22:43:24.467Z,99637.78
2023-05-21T22:45:52.464Z,99636.72
2023-05-21T22:48:22.067Z,99641.09
2023-05-21T22:50:53.590Z,99639.44
2023-05-21T22:53:21.833Z,99636.09
2023-05-21T22:55:50.089Z,99645.72
2023-05-21T22:58:18.458Z,99645.53
2023-05-21T23:00:46.797Z,99638.25
2023-05-21T23:03:14.803Z,99634.13
2023-05-21T23:05:43.002Z,99639.56
2023-05-21T23:08:12.434Z,99641.47
2023-05-21T23:10:40.651Z,99637.13
2023-05-21T23:13:08.844Z,99644.69
2023-05-21T23:15:38.784Z,99639.25
2023-05-21T23:18:07.819Z,99611.84
2023-05-21T23:20:36.871Z,99639.31
2023-05-21T23:23:05.264Z,99634.34
2023-05-21T23:25:35.110Z,99637.69
2023-05-21T23:28:03.112Z,99640.81
2023-05-21T23:30:31.070Z,99633.53
2023-05-21T23:32:59.020Z,99637.47
2023-05-21T23:35:27.208Z,99643.13
2023-05-21T23:37:55.292Z,99632.72
2023-05-21T23:40:23.252Z,99636.88
2023-05-21T23:42:52.609Z,99640.63
2023-05-21T23:45:20.718Z,99639.41
2023-05-21T23:47:48.757Z,99632.72
2023-05-21T23:50:16.922Z,99634.41
2023-05-21T23:52:44.976Z,99636.69
2023-05-21T23:55:14.907Z,99628.38
2023-05-21T23:57:42.985Z,99627.31
